Time;durP1;ratioP1;P1;durP2;ratioP2;P2;SDS_P1;SDS_P2;PMS_P1;PMS_P2;Temp;Humidity;BMP_temperature;BMP_pressure;BME280_temperature;BME280_humidity;BME280_pressure;Samples;Min_cycle;Max_cycle;Signal;HPM_P1;HPM_P2
2023/01/15 00:01:27;;;;;;;;;;;;;;;23.98;30.71;95511.56;4990858;28;1324;-73
2023/01/15 00:03:53;;;;;;;;;;;;;;;24.01;30.67;95510.34;4991539;28;828;-73
2023/01/15 00:06:19;;;;;;;;;;;;;;;24.02;30.61;95510.13;4991454;28;796;-73
2023/01/15 00:08:45;;;;;;;;;;;;;;;24.02;30.76;95510.13;4986248;28;1953;-74
2023/01/15 00:11:10;;;;;;;;;;;;;;;24.00;30.66;95506.84;4986436;28;1052;-74
2023/01/15 00:13:36;;;;;;;;;;;;;;;24.00;30.64;95506.84;4991145;28;866;-73
2023/01/15 00:16:05;;;;;;;;;;;;;;;23.99;30.65;95505.19;4990942;28;807;-74
2023/01/15 00:18:31;;;;;;;;;;;;;;;23.99;30.65;95510.56;4991384;28;890;-73
2023/01/15 00:21:04;;;;;;;;;;;;;;;24.01;30.83;95511.16;4980869;28;1422;-74
2023/01/15 00:28:58;;;;;;;;;;;;;;;23.97;30.68;95504.59;4991415;28;2340;-74
2023/01/15 00:31:24;;;;;;;;;;;;;;;23.99;30.88;95512.41;4986752;28;1396;-73
2023/01/15 00:33:49;;;;;;;;;;;;;;;23.96;30.58;95505.63;4984051;28;1323;-73
2023/01/15 00:36:14;;;;;;;;;;;;;;;23.97;30.70;95512.63;4992986;28;1481;-73
2023/01/15 00:38:40;;;;;;;;;;;;;;;24.01;30.52;95513.81;4993988;28;862;-73
2023/01/15 00:41:05;;;;;;;;;;;;;;;23.97;30.62;95509.13;4992899;28;1192;-72
2023/01/15 00:43:30;;;;;;;;;;;;;;;23.97;30.65;95509.94;4985164;28;1085;-74
2023/01/15 00:45:55;;;;;;;;;;;;;;;23.99;30.58;95499.84;4993850;28;1074;-74
2023/01/15 00:48:21;;;;;;;;;;;;;;;23.99;30.53;95497.16;4992879;28;1288;-73
2023/01/15 00:50:46;;;;;;;;;;;;;;;24.00;30.63;95496.09;4994275;28;1981;-73
2023/01/15 00:53:11;;;;;;;;;;;;;;;23.98;30.63;95492.81;4993608;28;931;-74
2023/01/15 00:55:36;;;;;;;;;;;;;;;23.94;30.71;95485.44;4983263;28;1292;-73
2023/01/15 00:58:01;;;;;;;;;;;;;;;23.97;30.57;95495.72;4992795;28;1311;-73
2023/01/15 01:00:27;;;;;;;;;;;;;;;23.93;30.84;95497.19;4993747;28;879;-73
2023/01/15 01:02:52;;;;;;;;;;;;;;;23.94;30.63;95496.16;4992497;28;1415;-74
2023/01/15 01:05:17;;;;;;;;;;;;;;;23.95;30.56;95495.09;4994152;28;896;-73
2023/01/15 01:07:42;;;;;;;;;;;;;;;23.92;30.59;95496.34;4984202;28;1143;-73
2023/01/15 01:10:08;;;;;;;;;;;;;;;23.94;30.61;95496.16;4993727;28;1965;-73
2023/01/15 01:12:33;;;;;;;;;;;;;;;23.91;30.55;95497.41;4994365;28;815;-73
2023/01/15 01:14:58;;;;;;;;;;;;;;;23.93;30.53;95503.34;4993710;28;787;-73
2023/01/15 01:17:24;;;;;;;;;;;;;;;23.91;30.73;95497.41;4986948;28;1402;-73
2023/01/15 01:19:49;;;;;;;;;;;;;;;23.91;30.69;95494.72;4990972;28;959;-73
2023/01/15 01:22:14;;;;;;;;;;;;;;;23.90;30.79;95501.09;4993652;28;888;-73
2023/01/15 01:24:40;;;;;;;;;;;;;;;23.93;30.75;95499.84;4993530;28;1017;-73
2023/01/15 01:27:05;;;;;;;;;;;;;;;23.93;30.64;95498.00;4992360;28;1395;-73
2023/01/15 01:29:30;;;;;;;;;;;;;;;23.93;30.80;95492.63;4984065;28;1946;-73
2023/01/15 01:31:55;;;;;;;;;;;;;;;23.95;30.78;95492.44;4992208;28;1165;-74
2023/01/15 01:34:21;;;;;;;;;;;;;;;23.98;30.64;95484.78;4993550;28;812;-73
2023/01/15 01:36:46;;;;;;;;;;;;;;;23.95;30.40;95479.84;4991695;28;1469;-73
2023/01/15 01:39:13;;;;;;;;;;;;;;;23.92;30.73;95482.16;4993410;28;906;-73
2023/01/15 01:41:38;;;;;;;;;;;;;;;23.88;30.81;95481.75;4983991;28;1010;-74
2023/01/15 01:44:04;;;;;;;;;;;;;;;23.87;30.67;95480.09;4991507;28;1193;-74
2023/01/15 01:46:31;;;;;;;;;;;;;;;23.90;30.74;95479.66;4992599;28;842;-73
2023/01/15 01:49:01;;;;;;;;;;;;;;;23.91;30.74;95481.34;4993423;28;1899;-74
2023/01/15 01:51:27;;;;;;;;;;;;;;;23.96;30.55;95484.19;4987751;28;1068;-73
2023/01/15 01:53:53;;;;;;;;;;;;;;;23.93;30.66;95487.28;4989342;28;945;-73
2023/01/15 01:56:19;;;;;;;;;;;;;;;23.88;30.88;95484.44;5024715;28;1362;-74
2023/01/15 01:58:47;;;;;;;;;;;;;;;23.89;30.86;95482.56;4991305;28;1359;-73
2023/01/15 02:01:12;;;;;;;;;;;;;;;23.91;30.47;95491.22;4993318;28;792;-74
2023/01/15 02:03:38;;;;;;;;;;;;;;;23.92;30.54;95482.97;4983386;28;1118;-75
2023/01/15 02:06:06;;;;;;;;;;;;;;;23.95;30.61;95482.53;4995040;28;890;-80
2023/01/15 02:08:33;;;;;;;;;;;;;;;23.92;30.52;95488.31;4995754;28;894;-81
2023/01/15 02:10:59;;;;;;;;;;;;;;;24.00;30.58;95489.94;4993400;28;1910;-80
2023/01/15 02:13:35;;;;;;;;;;;;;;;24.19;30.46;95488.16;4992742;28;820;-79
2023/01/15 02:16:15;;;;;;;;;;;;;;;24.32;30.36;95482.69;4987567;28;1450;-70
2023/01/15 02:18:59;;;;;;;;;;;;;;;24.36;29.98;95483.94;4992684;28;929;-70
2023/01/15 02:21:56;;;;;;;;;;;;;;;24.35;30.13;95482.25;4992144;28;804;-70
2023/01/15 02:24:22;;;;;;;;;;;;;;;24.39;30.08;95477.28;4980185;28;1138;-70
2023/01/15 02:26:53;;;;;;;;;;;;;;;24.43;29.80;95486.56;4981525;28;1255;-71
2023/01/15 02:29:23;;;;;;;;;;;;;;;24.46;30.03;95484.28;4992367;28;1960;-70
2023/01/15 02:31:50;;;;;;;;;;;;;;;24.45;29.99;95479.97;4992342;28;1090;-70
2023/01/15 02:34:20;;;;;;;;;;;;;;;24.46;29.98;95476.22;4990797;28;1244;-70
2023/01/15 02:36:51;;;;;;;;;;;;;;;24.46;29.88;95488.81;4986822;28;1356;-70
2023/01/15 02:39:17;;;;;;;;;;;;;;;24.46;29.97;95478.91;4987693;28;1059;-69
2023/01/15 02:41:47;;;;;;;;;;;;;;;24.46;29.63;95486.94;4992128;28;823;-69
2023/01/15 02:44:14;;;;;;;;;;;;;;;24.46;29.85;95480.78;4990059;28;1294;-70
2023/01/15 02:46:40;;;;;;;;;;;;;;;24.49;29.97;95482.22;5023245;28;1451;-70
2023/01/15 02:49:08;;;;;;;;;;;;;;;24.48;29.93;95473.34;4982591;28;1938;-70
2023/01/15 02:51:38;;;;;;;;;;;;;;;24.49;30.05;95471.47;4991987;28;819;-70
2023/01/15 02:54:05;;;;;;;;;;;;;;;24.46;29.98;95467.38;4990243;28;1195;-70
2023/01/15 02:56:34;;;;;;;;;;;;;;;24.48;29.96;95473.34;5023140;28;1358;-70
2023/01/15 02:59:02;;;;;;;;;;;;;;;24.49;29.70;95471.47;4987661;28;1217;-73
2023/01/15 03:01:33;;;;;;;;;;;;;;;24.49;29.90;95471.47;4986337;28;982;-71
2023/01/15 03:04:17;;;;;;;;;;;;;;;24.50;29.81;95473.09;4990396;28;1420;-70
2023/01/15 03:06:45;;;;;;;;;;;;;;;24.49;29.94;95474.16;4991429;28;898;-70
2023/01/15 03:09:10;;;;;;;;;;;;;;;24.49;29.78;95466.13;4991486;28;1910;-70
2023/01/15 03:11:39;;;;;;;;;;;;;;;24.49;29.97;95471.47;4982433;28;1338;-72
2023/01/15 03:14:14;;;;;;;;;;;;;;;24.50;29.92;95475.78;4991402;28;819;-70
2023/01/15 03:17:06;;;;;;;;;;;;;;;24.51;29.85;95474.75;4991434;28;855;-70
2023/01/15 03:19:40;;;;;;;;;;;;;;;24.50;29.95;95478.47;4988119;28;1211;-71
2023/01/15 03:22:11;;;;;;;;;;;;;;;24.50;29.84;95478.47;4985131;28;1434;-70
2023/01/15 03:24:36;;;;;;;;;;;;;;;24.49;29.81;95476.84;4986821;28;964;-70
2023/01/15 03:27:02;;;;;;;;;;;;;;;24.50;29.87;95481.16;4991432;28;871;-71
2023/01/15 03:29:37;;;;;;;;;;;;;;;24.50;29.92;95481.16;4991044;28;1961;-71
2023/01/15 03:32:03;;;;;;;;;;;;;;;24.51;29.94;95474.75;4990689;28;1218;-71
2023/01/15 03:35:04;;;;;;;;;;;;;;;24.51;29.80;95488.19;5012840;28;1211;-70
2023/01/15 03:37:30;;;;;;;;;;;;;;;24.49;29.94;95477.66;4952263;28;1376;-71
2023/01/15 03:39:56;;;;;;;;;;;;;;;24.50;29.89;95478.47;4986178;28;1087;-69
2023/01/15 03:42:22;;;;;;;;;;;;;;;24.51;29.78;95480.13;4990176;28;831;-69
2023/01/15 03:45:10;;;;;;;;;;;;;;;24.51;29.74;95489.00;4985810;28;918;-71
2023/01/15 03:47:35;;;;;;;;;;;;;;;24.51;29.73;95488.19;5021102;28;1407;-70
2023/01/15 03:50:19;;;;;;;;;;;;;;;24.50;30.04;95484.66;4990015;28;1965;-70
2023/01/15 03:52:51;;;;;;;;;;;;;;;24.50;29.91;95483.84;4990304;28;935;-71
2023/01/15 03:55:22;;;;;;;;;;;;;;;24.50;29.70;95484.66;4990427;28;854;-71
2023/01/15 03:57:56;;;;;;;;;;;;;;;24.52;29.86;95489.81;4980925;28;1050;-70
2023/01/15 04:00:25;;;;;;;;;;;;;;;24.51;29.84;95477.44;4990587;28;815;-70
2023/01/15 04:02:52;;;;;;;;;;;;;;;24.51;29.67;95480.94;4990202;28;1263;-70
2023/01/15 04:05:18;;;;;;;;;;;;;;;24.51;29.74;95482.81;4989952;28;905;-70
2023/01/15 04:07:45;;;;;;;;;;;;;;;24.52;29.71;95481.75;4985101;28;1092;-71
2023/01/15 04:10:10;;;;;;;;;;;;;;;24.51;29.73;95475.59;4988187;28;1906;-70
2023/01/15 04:12:35;;;;;;;;;;;;;;;24.51;29.69;95478.25;4993838;28;756;-70
2023/01/15 04:15:01;;;;;;;;;;;;;;;24.51;30.04;95472.09;4993852;28;902;-70
2023/01/15 04:17:26;;;;;;;;;;;;;;;24.51;29.83;95472.91;4993791;28;1088;-71
2023/01/15 04:19:51;;;;;;;;;;;;;;;24.52;29.58;95476.41;4983268;28;1367;-70
2023/01/15 04:22:17;;;;;;;;;;;;;;;24.51;29.72;95466.72;4992235;28;1495;-69
2023/01/15 04:24:42;;;;;;;;;;;;;;;24.52;29.92;95477.22;4993580;28;834;-71
2023/01/15 04:27:07;;;;;;;;;;;;;;;24.52;29.99;95474.53;4993122;28;982;-71
2023/01/15 04:29:32;;;;;;;;;;;;;;;24.54;29.57;95479.69;4992010;28;1918;-72
2023/01/15 04:31:58;;;;;;;;;;;;;;;24.52;29.98;95481.75;4942729;28;1193267;-70
2023/01/15 04:34:24;;;;;;;;;;;;;;;24.53;29.70;95488.75;4993144;28;1557;-71
2023/01/15 04:36:49;;;;;;;;;;;;;;;24.52;29.93;95479.91;4992648;28;1713;-71
2023/01/15 04:39:14;;;;;;;;;;;;;;;24.52;29.66;95476.41;4994684;28;828;-70
2023/01/15 04:44:26;;;;;;;;;;;;;;;24.50;29.85;95490.00;4994509;28;957;-70
2023/01/15 04:46:52;;;;;;;;;;;;;;;24.52;29.65;95489.81;4994397;28;847;-70
2023/01/15 04:49:17;;;;;;;;;;;;;;;24.51;29.71;95489.00;4994016;28;1922;-71
2023/01/15 04:51:43;;;;;;;;;;;;;;;24.51;29.69;95491.69;4992920;28;1293;-70
2023/01/15 04:54:09;;;;;;;;;;;;;;;24.50;29.58;95494.56;5016341;28;1393;-69
2023/01/15 04:56:39;;;;;;;;;;;;;;;24.51;29.87;95496.22;4994224;28;924;-70
2023/01/15 04:59:04;;;;;;;;;;;;;;;24.52;29.73;95492.50;4994334;28;863;-69
2023/01/15 05:01:29;;;;;;;;;;;;;;;24.53;29.72;95488.75;4994418;28;807;-70
2023/01/15 05:03:56;;;;;;;;;;;;;;;24.53;29.71;95488.75;4991299;28;953;-71
2023/01/15 05:06:21;;;;;;;;;;;;;;;24.51;29.78;95486.31;4986341;28;1370;-71
2023/01/15 05:08:47;;;;;;;;;;;;;;;24.52;29.85;95490.63;4994166;28;882;-70
2023/01/15 05:11:12;;;;;;;;;;;;;;;24.51;29.84;95489.00;4992554;28;1957;-71
2023/01/15 05:13:37;;;;;;;;;;;;;;;24.51;29.70;95491.69;4994534;28;876;-70
2023/01/15 05:16:11;;;;;;;;;;;;;;;24.53;29.75;95488.75;4983954;28;1191;-71
2023/01/15 05:18:36;;;;;;;;;;;;;;;24.52;29.71;95489.81;4992100;28;1312;-70
2023/01/15 05:21:01;;;;;;;;;;;;;;;24.51;29.80;95485.50;4992510;28;831;-70
2023/01/15 05:23:27;;;;;;;;;;;;;;;24.51;29.77;95486.31;4992508;28;1205;-71
2023/01/15 05:25:52;;;;;;;;;;;;;;;24.51;29.54;95485.50;4993646;28;951;-70
2023/01/15 05:28:18;;;;;;;;;;;;;;;24.51;29.88;95485.50;4984613;28;1221;-69
2023/01/15 05:30:43;;;;;;;;;;;;;;;24.49;29.88;95484.88;4993602;28;1894;-71
2023/01/15 05:33:08;;;;;;;;;;;;;;;24.51;29.99;95493.53;4992444;28;1346;-71
2023/01/15 05:35:34;;;;;;;;;;;;;;;24.50;29.67;95478.47;4993238;28;1233;-71
2023/01/15 05:37:59;;;;;;;;;;;;;;;24.51;29.72;95485.50;4991032;28;1222;-71
2023/01/15 05:40:24;;;;;;;;;;;;;;;24.49;29.93;95482.22;4985816;28;1170;-71
2023/01/15 05:42:49;;;;;;;;;;;;;;;24.49;29.71;95483.03;5024587;28;1202;-71
2023/01/15 05:45:15;;;;;;;;;;;;;;;24.50;29.65;95478.47;4993544;28;950;-70
2023/01/15 05:47:40;;;;;;;;;;;;;;;24.50;29.82;95478.47;4993221;28;900;-72
2023/01/15 05:50:05;;;;;;;;;;;;;;;24.51;29.87;95482.81;4984176;28;1910;-75
2023/01/15 05:52:30;;;;;;;;;;;;;;;24.50;29.88;95492.69;4992989;28;981;-70
2023/01/15 05:54:56;;;;;;;;;;;;;;;24.51;29.71;95490.88;4992214;28;1255;-71
2023/01/15 05:57:21;;;;;;;;;;;;;;;24.51;29.84;95485.50;4991438;28;1407;-72
2023/01/15 05:59:49;;;;;;;;;;;;;;;24.50;29.90;95502.59;4993341;28;882;-71
2023/01/15 06:02:14;;;;;;;;;;;;;;;24.50;29.53;95494.56;5015621;28;1198;-71
2023/01/15 06:04:39;;;;;;;;;;;;;;;24.52;29.75;95504.03;4991638;28;1205;-71
2023/01/15 06:07:04;;;;;;;;;;;;;;;24.52;29.82;95503.22;4993273;28;931;-71
2023/01/15 06:09:30;;;;;;;;;;;;;;;24.54;29.60;95503.84;4993129;28;1959;-70
2023/01/15 06:11:55;;;;;;;;;;;;;;;24.55;29.64;95497.41;4992783;28;804;-70
2023/01/15 06:14:21;;;;;;;;;;;;;;;24.54;29.77;95501.16;4982727;28;1172;-69
2023/01/15 06:16:46;;;;;;;;;;;;;;;24.54;29.63;95498.47;4993031;28;864;-69
2023/01/15 06:19:12;;;;;;;;;;;;;;;24.53;29.63;95488.75;4992432;28;899;-70
2023/01/15 06:21:37;;;;;;;;;;;;;;;24.56;29.52;95501.72;4992626;28;898;-69
2023/01/15 06:24:03;;;;;;;;;;;;;;;24.54;29.59;95490.41;4985019;28;1286;-69
2023/01/15 06:26:28;;;;;;;;;;;;;;;24.55;29.91;95500.91;5021566;28;1400;-70
2023/01/15 06:28:53;;;;;;;;;;;;;;;24.54;29.90;95495.78;4992631;28;1903;-69
2023/01/15 06:31:20;;;;;;;;;;;;;;;24.54;29.75;95495.78;4992617;28;1217;-71
2023/01/15 06:33:45;;;;;;;;;;;;;;;24.53;29.80;95494.94;4992094;28;918;-70
2023/01/15 06:36:12;;;;;;;;;;;;;;;24.55;29.79;95492.06;4981721;28;1225;-71
2023/01/15 06:38:37;;;;;;;;;;;;;;;24.54;29.74;95490.41;4992634;28;839;-71
2023/01/15 06:41:03;;;;;;;;;;;;;;;24.55;29.61;95494.72;4992319;28;840;-71
2023/01/15 06:48:57;;;;;;;;;;;;;;;24.52;29.74;95497.84;4987881;28;1899;-71
2023/01/15 06:51:22;;;;;;;;;;;;;;;24.53;29.58;95503.00;4974948;28;1284;-70
2023/01/15 06:53:48;;;;;;;;;;;;;;;24.55;29.81;95494.72;4991241;28;1177;-71
2023/01/15 06:56:13;;;;;;;;;;;;;;;24.55;29.76;95497.41;4991270;28;1323;-71
2023/01/15 06:58:40;;;;;;;;;;;;;;;24.56;29.68;95493.69;4983061;28;997;-70
2023/01/15 07:01:14;;;;;;;;;;;;;;;24.54;29.62;95495.78;4992582;28;882;-71
2023/01/15 07:03:40;;;;;;;;;;;;;;;24.56;29.57;95501.72;4991990;28;930;-71
2023/01/15 07:06:09;;;;;;;;;;;;;;;24.55;29.73;95495.56;4992071;28;827;-69
2023/01/15 07:08:35;;;;;;;;;;;;;;;24.56;29.74;95501.72;4992165;28;858;-70
2023/01/15 07:11:01;;;;;;;;;;;;;;;24.57;29.54;95495.34;4981182;28;1898;-70
2023/01/15 07:13:26;;;;;;;;;;;;;;;24.56;29.67;95485.63;4990964;28;1365;-70
2023/01/15 07:15:52;;;;;;;;;;;;;;;24.54;29.78;95490.41;4990792;28;1386;-70
2023/01/15 07:18:17;;;;;;;;;;;;;;;24.53;29.92;95491.44;4991839;28;891;-70
2023/01/15 07:20:42;;;;;;;;;;;;;;;24.55;29.72;95502.78;4987501;28;980;-69
2023/01/15 07:23:07;;;;;;;;;;;;;;;24.55;29.62;95492.06;4986065;28;1169;-70
2023/01/15 07:25:33;;;;;;;;;;;;;;;24.54;29.66;95495.78;4990727;28;1233;-70
2023/01/15 07:27:58;;;;;;;;;;;;;;;24.53;29.76;95499.50;4990773;28;1411;-70
2023/01/15 07:30:23;;;;;;;;;;;;;;;24.53;29.63;95503.00;4991767;28;1914;-70
2023/01/15 07:32:49;;;;;;;;;;;;;;;24.52;29.85;95497.84;4981272;28;1304;-70
2023/01/15 07:35:14;;;;;;;;;;;;;;;24.51;29.86;95501.59;4991750;28;1348;-71
2023/01/15 07:37:40;;;;;;;;;;;;;;;24.51;29.81;95501.59;4990584;28;1358;-69
2023/01/15 07:40:05;;;;;;;;;;;;;;;24.52;30.00;95503.22;4991141;28;854;-70
2023/01/15 07:50:42;;;;;;;;;;;;;;;24.51;30.06;95506.97;4995892;28;1994;-70
2023/01/15 07:53:08;;;;;;;;;;;;;;;24.52;30.14;95503.22;4995900;28;808;-71
2023/01/15 07:55:34;;;;;;;;;;;;;;;24.54;30.04;95509.19;4985324;28;1185;-72
2023/01/15 07:57:59;;;;;;;;;;;;;;;24.55;29.97;95508.16;4996133;28;866;-71
2023/01/15 08:00:24;;;;;;;;;;;;;;;24.55;29.76;95511.66;4995561;28;930;-71
2023/01/15 08:02:50;;;;;;;;;;;;;;;24.56;29.93;95504.41;4995687;28;867;-71
2023/01/15 08:05:16;;;;;;;;;;;;;;;24.54;30.01;95506.50;4995787;28;1004;-72
2023/01/15 08:07:41;;;;;;;;;;;;;;;24.52;30.00;95497.84;4984872;28;1176;-71
2023/01/15 08:10:08;;;;;;;;;;;;;;;24.51;30.09;95507.78;4995259;28;1973;-71
2023/01/15 08:15:17;;;;;;;;;;;;;;;24.50;29.90;95506.09;4995654;28;655;-70
2023/01/15 08:17:44;;;;;;;;;;;;;;;24.49;30.02;95511.72;4985436;28;1434;-71
2023/01/15 08:20:11;;;;;;;;;;;;;;;24.50;30.00;95513.34;4994755;28;1062;-70
2023/01/15 08:22:37;;;;;;;;;;;;;;;24.49;30.04;95514.38;4995436;28;844;-71
2023/01/15 08:25:03;;;;;;;;;;;;;;;24.48;30.04;95518.09;4993719;28;1195;-70
2023/01/15 08:27:29;;;;;;;;;;;;;;;24.47;30.04;95511.91;4994157;28;1371;-70
2023/01/15 08:29:55;;;;;;;;;;;;;;;24.45;30.11;95506.78;4985973;28;1898;-69
2023/01/15 08:32:21;;;;;;;;;;;;;;;24.45;30.21;95514.00;4994795;28;1103;-69
2023/01/15 08:34:46;;;;;;;;;;;;;;;24.45;29.92;95525.56;4994758;28;1303;-69
2023/01/15 08:37:11;;;;;;;;;;;;;;;24.44;29.81;95523.91;4995109;28;811;-70
2023/01/15 08:39:36;;;;;;;;;;;;;;;24.44;30.11;95518.53;4993647;28;803;-74
2023/01/15 08:42:02;;;;;;;;;;;;;;;24.44;30.05;95512.34;4985530;28;1240;-70
2023/01/15 08:44:27;;;;;;;;;;;;;;;24.43;30.13;95506.16;4994999;28;851;-70
2023/01/15 08:46:52;;;;;;;;;;;;;;;24.44;30.23;95506.97;4993227;28;1186;-70
2023/01/15 08:49:19;;;;;;;;;;;;;;;24.44;30.01;95512.34;4994595;28;2019;-69
2023/01/15 08:51:46;;;;;;;;;;;;;;;24.45;30.07;95516.69;4985742;28;1259;-72
2023/01/15 08:54:11;;;;;;;;;;;;;;;24.45;29.91;95505.97;4993509;28;965;-69
2023/01/15 08:56:37;;;;;;;;;;;;;;;24.45;30.16;95506.78;4994415;28;918;-69
2023/01/15 08:59:03;;;;;;;;;;;;;;;24.47;29.82;95511.91;4993277;28;1192;-69
2023/01/15 09:01:29;;;;;;;;;;;;;;;24.48;30.03;95510.03;4994471;28;874;-68
2023/01/15 09:03:54;;;;;;;;;;;;;;;24.48;29.85;95508.22;4984407;28;1466;-70
2023/01/15 09:06:19;;;;;;;;;;;;;;;24.51;29.77;95506.97;4994380;28;895;-70
2023/01/15 09:08:45;;;;;;;;;;;;;;;24.51;29.70;95509.63;4992672;28;1309;-71
2023/01/15 09:11:11;;;;;;;;;;;;;;;24.51;30.06;95509.63;4994173;28;1965;-71
2023/01/15 09:13:37;;;;;;;;;;;;;;;24.51;30.07;95502.41;4994318;28;902;-70
2023/01/15 09:16:03;;;;;;;;;;;;;;;24.53;29.70;95500.31;4984719;28;1025;-70
2023/01/15 09:18:29;;;;;;;;;;;;;;;24.54;29.92;95495.78;4994124;28;1081;-69
2023/01/15 09:20:54;;;;;;;;;;;;;;;24.52;29.94;95497.84;4992590;28;1273;-70
2023/01/15 09:23:19;;;;;;;;;;;;;;;24.52;29.99;95496.00;4993998;28;882;-68
2023/01/15 09:26:14;;;;;;;;;;;;;;;24.51;29.85;95498.91;4988023;28;1193;-70
2023/01/15 09:28:39;;;;;;;;;;;;;;;24.53;29.91;95496.81;4984042;28;1246;-70
2023/01/15 09:31:05;;;;;;;;;;;;;;;24.55;29.85;95489.38;4993358;28;1902;-69
2023/01/15 09:33:30;;;;;;;;;;;;;;;24.55;29.66;95486.69;4992405;28;1376;-69
2023/01/15 09:35:55;;;;;;;;;;;;;;;24.53;29.69;95491.44;4993797;28;1230;-70
2023/01/15 09:38:20;;;;;;;;;;;;;;;24.55;29.68;95492.06;4984945;28;1205;-70
2023/01/15 09:40:49;;;;;;;;;;;;;;;24.56;29.63;95482.97;4993623;28;1135;-70
2023/01/15 09:43:40;;;;;;;;;;;;;;;24.55;29.79;95482.13;4992447;28;1310;-70
2023/01/15 09:46:12;;;;;;;;;;;;;;;24.56;29.76;95470.38;4992351;28;993;-70
2023/01/15 09:49:03;;;;;;;;;;;;;;;24.56;29.75;95464.19;4983876;28;1185;-70
2023/01/15 09:51:37;;;;;;;;;;;;;;;24.56;29.83;95466.84;4993546;28;811;-71
2023/01/15 09:54:05;;;;;;;;;;;;;;;24.54;29.81;95455.56;4993352;28;919;-70
2023/01/15 09:56:33;;;;;;;;;;;;;;;24.56;29.63;95456.97;4992493;28;1733;-71
2023/01/15 09:59:00;;;;;;;;;;;;;;;24.57;29.62;95449.75;4993446;28;1492;-70
2023/01/15 10:01:28;;;;;;;;;;;;;;;24.55;29.61;95443.78;4984131;28;1313;-70
2023/01/15 10:03:58;;;;;;;;;;;;;;;24.54;29.31;95436.78;4993153;28;855;-70
2023/01/15 10:06:26;;;;;;;;;;;;;;;24.15;27.59;95439.50;4991360;28;1553;-69
2023/01/15 10:08:58;;;;;;;;;;;;;;;24.16;28.70;95425.09;4993158;28;784;-71
2023/01/15 10:12:34;;;;;;;;;;;;;;;24.22;29.10;95426.09;4985156;28;1902;-70
2023/01/15 10:14:25;;;;;;;;;;;;;;;24.28;29.08;95419.84;4993299;28;1067;-70
2023/01/15 10:16:50;;;;;;;;;;;;;;;24.32;29.18;95413.00;4993515;28;871;-70
2023/01/15 10:19:16;;;;;;;;;;;;;;;24.32;29.11;95413.00;5001765;28;1601;-70
2023/01/15 10:22:03;;;;;;;;;;;;;;;24.35;29.22;95401.81;4994306;28;1445;-69
2023/01/15 10:24:32;;;;;;;;;;;;;;;24.33;29.42;95401.22;4988324;28;1282;-69
2023/01/15 10:26:58;;;;;;;;;;;;;;;24.33;29.49;95395.84;5023838;28;1746;-69
2023/01/15 10:29:56;;;;;;;;;;;;;;;24.36;29.38;95398.13;5024003;28;1910;-70
2023/01/15 10:32:39;;;;;;;;;;;;;;;24.38;29.39;95390.66;4990684;28;1484;-69
2023/01/15 10:35:15;;;;;;;;;;;;;;;24.38;29.35;95379.91;5000594;28;1679;-71
2023/01/15 10:37:45;;;;;;;;;;;;;;;24.36;29.55;95381.19;5001743;28;1474;-69
2023/01/15 10:40:23;;;;;;;;;;;;;;;24.36;29.57;95376.66;4999978;28;1642;-70
2023/01/15 10:42:49;;;;;;;;;;;;;;;24.39;29.50;95368.19;4997975;28;1488;-70
2023/01/15 10:45:17;;;;;;;;;;;;;;;24.40;29.36;95367.13;4984511;28;1805;-73
2023/01/15 10:47:44;;;;;;;;;;;;;;;24.40;29.28;95364.44;5002540;28;1725;-68
2023/01/15 10:50:23;;;;;;;;;;;;;;;24.41;29.36;95366.06;5001892;28;1980;-70
2023/01/15 10:53:08;;;;;;;;;;;;;;;24.42;29.52;95364.25;4990694;28;1833;-68
2023/01/15 10:55:44;;;;;;;;;;;;;;;24.42;29.43;95354.31;4978580;28;1690;-69
2023/01/15 10:58:09;;;;;;;;;;;;;;;24.42;29.35;95343.59;4980442;28;1456;-70
2023/01/15 11:00:36;;;;;;;;;;;;;;;24.39;29.51;95338.69;5015669;28;1523;-68
2023/01/15 11:03:10;;;;;;;;;;;;;;;24.36;29.62;95341.81;5018918;28;1643;-70
2023/01/15 11:05:37;;;;;;;;;;;;;;;24.36;29.78;95333.75;4990840;28;1783;-70
2023/01/15 11:08:05;;;;;;;;;;;;;;;24.38;29.76;95330.84;4984945;28;1313;-70
2023/01/15 11:10:32;;;;;;;;;;;;;;;24.39;29.69;95325.28;4986607;28;1905;-70
2023/01/15 11:21:33;;;;;;;;;;;;;;;24.37;29.68;95313.94;4986275;28;1639;-69
2023/01/15 11:23:59;;;;;;;;;;;;;;;24.37;29.56;95305.06;4993259;28;1683;-69
2023/01/15 11:26:26;;;;;;;;;;;;;;;24.37;29.79;95305.06;4991012;28;1472;-71
2023/01/15 11:28:52;;;;;;;;;;;;;;;24.39;29.77;95306.50;5004745;28;1615;-69
2023/01/15 11:31:18;;;;;;;;;;;;;;;24.40;29.74;95297.41;4985146;28;1890;-70
2023/01/15 11:33:44;;;;;;;;;;;;;;;24.40;29.54;95293.91;5004673;28;1720;-69
2023/01/15 11:36:20;;;;;;;;;;;;;;;24.39;29.66;95287.72;4990072;28;1639;-69
2023/01/15 11:38:47;;;;;;;;;;;;;;;24.39;29.63;95284.19;4989384;28;1877;-69
2023/01/15 11:41:21;;;;;;;;;;;;;;;24.31;26.85;95279.16;4995397;28;1787;-69
2023/01/15 11:52:07;;;;;;;;;;;;;;;23.60;26.78;95269.69;4991308;28;1626;-69
2023/01/15 11:54:36;;;;;;;;;;;;;;;23.48;27.03;95265.03;4990151;28;1641;-69
2023/01/15 11:57:01;;;;;;;;;;;;;;;23.42;26.90;95263.19;4995681;28;1471;-73
2023/01/15 11:59:26;;;;;;;;;;;;;;;23.39;26.58;95257.44;4987416;28;1338;-69
2023/01/15 12:01:56;;;;;;;;;;;;;;;23.31;26.93;95256.69;4990544;28;1738;-71
2023/01/15 12:04:25;;;;;;;;;;;;;;;23.24;26.70;95255.09;4995726;28;1754;-69
2023/01/15 12:06:50;;;;;;;;;;;;;;;23.18;26.75;95259.44;4979848;28;1481;-70
2023/01/15 12:09:21;;;;;;;;;;;;;;;23.16;26.64;95255.34;4996952;28;1902;-71
2023/01/15 12:11:49;;;;;;;;;;;;;;;23.08;26.73;95249.22;4990778;28;811;-70
2023/01/15 12:14:30;;;;;;;;;;;;;;;23.11;26.50;95242.63;5004044;28;1660;-70
2023/01/15 12:16:55;;;;;;;;;;;;;;;23.02;26.75;95246.56;4981492;28;1696;-69
2023/01/15 12:19:35;;;;;;;;;;;;;;;22.96;26.59;95244.75;4988869;28;1222;-69
2023/01/15 12:22:06;;;;;;;;;;;;;;;22.85;26.68;95241.72;4990004;28;1579;-70
2023/01/15 12:24:46;;;;;;;;;;;;;;;22.86;26.45;95237.19;4990612;28;898;-70
2023/01/15 12:27:46;;;;;;;;;;;;;;;22.81;26.47;95240.47;4994495;28;1560;-70
2023/01/15 12:30:11;;;;;;;;;;;;;;;22.76;26.66;95234.13;4963531;28;1961;-69
2023/01/15 12:32:40;;;;;;;;;;;;;;;22.73;26.60;95231.88;5006352;28;1232;-69
2023/01/15 12:35:15;;;;;;;;;;;;;;;22.75;26.32;95232.50;5003302;28;1903;-69
2023/01/15 12:37:40;;;;;;;;;;;;;;;22.67;26.43;95229.03;4999962;28;1535;-71
2023/01/15 12:40:24;;;;;;;;;;;;;;;22.71;26.46;95232.09;4984893;28;1450;-71
2023/01/15 12:45:40;;;;;;;;;;;;;;;22.65;26.21;95220.41;4997088;28;1670;-69
2023/01/15 12:48:05;;;;;;;;;;;;;;;22.64;26.40;95221.44;4998144;28;1391;-69
2023/01/15 12:50:37;;;;;;;;;;;;;;;22.63;26.41;95221.66;4987472;28;1927;-69
2023/01/15 12:53:17;;;;;;;;;;;;;;;22.60;26.17;95217.56;4999790;28;1588;-70
2023/01/15 12:55:59;;;;;;;;;;;;;;;22.58;26.18;95211.59;5005101;28;1594;-72
2023/01/15 12:58:59;;;;;;;;;;;;;;;22.56;26.28;95205.63;5000895;28;1730;-70
2023/01/15 13:01:37;;;;;;;;;;;;;;;22.57;26.33;95201.09;4995781;28;1728;-69
2023/01/15 13:04:24;;;;;;;;;;;;;;;22.55;26.42;95195.97;4996765;28;1577;-71
2023/01/15 13:06:53;;;;;;;;;;;;;;;22.48;26.43;95197.84;4992298;28;1824;-70
2023/01/15 13:09:40;;;;;;;;;;;;;;;22.52;26.14;95192.91;4993508;28;1910;-70
2023/01/15 13:12:11;;;;;;;;;;;;;;;22.48;26.39;95197.84;4993661;28;807;-71
2023/01/15 13:14:36;;;;;;;;;;;;;;;22.45;26.40;95198.28;4983289;28;1611;-70
2023/01/15 13:17:05;;;;;;;;;;;;;;;22.45;26.27;95192.94;4993409;28;1391;-70
2023/01/15 13:19:38;;;;;;;;;;;;;;;22.43;26.34;95190.50;4991132;28;1259;-68
2023/01/15 13:22:12;;;;;;;;;;;;;;;22.39;26.34;95185.78;4992237;28;1603;-69
2023/01/15 13:24:58;;;;;;;;;;;;;;;22.37;26.15;95186.00;4993043;28;1308;-72
2023/01/15 13:27:29;;;;;;;;;;;;;;;22.37;25.99;95175.31;4986965;28;1579;-72
2023/01/15 13:29:54;;;;;;;;;;;;;;;22.37;25.97;95174.47;4996974;28;1898;-72
2023/01/15 13:32:25;;;;;;;;;;;;;;;22.30;25.95;95168.34;5005268;28;1388;-69
2023/01/15 13:34:54;;;;;;;;;;;;;;;22.27;26.27;95166.91;4984595;28;1518;-69
2023/01/15 13:37:22;;;;;;;;;;;;;;;22.26;26.23;95173.28;4993467;28;1659;-69
2023/01/15 13:39:49;;;;;;;;;;;;;;;22.18;26.07;95165.50;4993809;28;1638;-70
2023/01/15 13:42:31;;;;;;;;;;;;;;;22.20;26.06;95158.94;4990093;28;1389;-70
2023/01/15 13:44:59;;;;;;;;;;;;;;;22.17;25.84;95164.69;4991789;28;1602;-70
2023/01/15 13:47:27;;;;;;;;;;;;;;;22.14;26.04;95161.56;4997346;28;1379;-68
2023/01/15 13:49:58;;;;;;;;;;;;;;;22.14;25.92;95158.91;4981870;28;1971;-70
2023/01/15 13:52:27;;;;;;;;;;;;;;;22.10;25.87;95161.19;4997260;28;1623;-68